Time;durP1;ratioP1;P1;durP2;ratioP2;P2;SDS_P1;SDS_P2;PMS_P1;PMS_P2;Temp;Humidity;BMP_temperature;BMP_pressure;BME280_temperature;BME280_humidity;BME280_pressure;Samples;Min_cycle;Max_cycle;Signal;HPM_P1;HPM_P2
2023/06/04 00:01:44;;;;;;;;;;;17.70;65.10;;;16.91;100.00;62537.16;4897166;29;19923;-81
2023/06/04 00:04:12;;;;;;;;;;;17.70;65.10;;;16.90;100.00;106994.31;4898680;29;19989;-82
2023/06/04 00:06:40;;;;;;;;;;;17.70;65.00;;;-151.14;100.00;62537.16;4898492;29;19930;-82
2023/06/04 00:09:08;;;;;;;;;;;17.70;65.20;;;16.92;100.00;83514.50;4898113;29;19923;-81
2023/06/04 00:11:36;;;;;;;;;;;17.70;65.20;;;16.92;100.00;62537.16;4898505;29;20114;-82
2023/06/04 00:14:06;;;;;;;;;;;17.70;65.00;;;16.93;100.00;62537.16;4882971;29;19930;-82
2023/06/04 00:16:35;;;;;;;;;;;17.70;65.10;;;-151.14;100.00;62537.16;4899531;29;19953;-82
2023/06/04 00:19:03;;;;;;;;;;;17.80;64.90;;;-151.14;100.00;62537.16;4897757;29;20119;-81
2023/06/04 00:21:31;;;;;;;;;;;17.70;65.20;;;-151.14;100.00;62537.16;4898230;29;19930;-82
2023/06/04 00:23:59;;;;;;;;;;;17.70;64.90;;;-151.14;100.00;62537.16;4898562;29;19923;-82
2023/06/04 00:26:27;;;;;;;;;;;17.80;65.00;;;-151.14;100.00;62537.16;4898283;29;19924;-81
2023/06/04 00:28:56;;;;;;;;;;;17.80;65.10;;;-151.14;100.00;62537.16;4882315;29;19931;-82
2023/06/04 00:31:25;;;;;;;;;;;17.80;65.10;;;187.61;100.00;62537.16;4898078;29;20233;-81
2023/06/04 00:33:53;;;;;;;;;;;17.80;64.90;;;-151.14;100.00;62537.16;4898168;29;19946;-81
2023/06/04 00:36:21;;;;;;;;;;;17.80;64.70;;;-151.14;100.00;62537.16;4882555;29;19930;-81
2023/06/04 00:38:49;;;;;;;;;;;17.80;65.80;;;-151.14;100.00;62537.16;4897673;29;20215;-82
2023/06/04 00:41:17;;;;;;;;;;;17.80;65.00;;;187.61;100.00;62537.16;4899119;29;20118;-81
2023/06/04 00:43:55;;;;;;;;;;;17.80;64.90;;;-151.14;100.00;62537.16;4899094;29;19923;-82
2023/06/04 00:46:26;;;;;;;;;;;17.80;64.70;;;-151.14;100.00;62537.16;4882569;29;19924;-81
2023/06/04 00:48:54;;;;;;;;;;;17.70;65.00;;;-151.14;100.00;62537.16;4897388;29;20122;-82
2023/06/04 00:51:22;;;;;;;;;;;17.80;65.20;;;-151.14;100.00;62537.16;4913416;29;19931;-81
2023/06/04 00:53:51;;;;;;;;;;;17.80;65.20;;;-151.14;100.00;62537.16;4897921;29;20239;-81
2023/06/04 00:56:19;;;;;;;;;;;17.80;65.20;;;18.08;100.00;62537.16;4899011;29;19924;-81
2023/06/04 00:58:47;;;;;;;;;;;17.80;65.10;;;-151.14;100.00;62537.16;4880690;29;19923;-82
2023/06/04 01:01:20;;;;;;;;;;;17.80;64.80;;;-151.14;100.00;62537.16;4897811;29;19924;-81
2023/06/04 01:03:51;;;;;;;;;;;17.80;64.40;;;187.61;100.00;62537.16;4898908;29;19923;-81
2023/06/04 01:06:21;;;;;;;;;;;17.80;64.60;;;187.61;100.00;62537.16;4897812;29;19929;-81
2023/06/04 01:08:51;;;;;;;;;;;17.70;64.70;;;-151.14;100.00;62537.16;4897176;29;19930;-81
2023/06/04 01:11:19;;;;;;;;;;;17.70;64.90;;;-151.14;100.00;62537.16;4897659;29;19930;-82
2023/06/04 01:13:47;;;;;;;;;;;17.80;65.00;;;-151.14;100.00;62537.16;4882128;29;19924;-81
2023/06/04 01:16:15;;;;;;;;;;;17.70;65.20;;;18.08;100.00;62537.16;4882181;29;19923;-81
2023/06/04 01:18:44;;;;;;;;;;;17.80;65.40;;;-151.14;100.00;62537.16;4897034;29;20100;-81
2023/06/04 01:21:18;;;;;;;;;;;17.70;65.10;;;-151.14;100.00;62537.16;4882083;29;19923;-81
2023/06/04 01:23:47;;;;;;;;;;;17.80;65.10;;;-151.14;100.00;62537.16;4897578;29;20232;-81
2023/06/04 01:26:15;;;;;;;;;;;17.70;64.90;;;18.09;100.00;62537.16;4898692;29;19923;-81
2023/06/04 01:28:43;;;;;;;;;;;17.80;64.90;;;187.61;100.00;62537.16;4881304;29;19985;-82
2023/06/04 01:31:12;;;;;;;;;;;17.80;65.00;;;-151.14;100.00;62537.16;4897439;29;19923;-81
2023/06/04 01:33:40;;;;;;;;;;;17.80;65.00;;;187.61;100.00;62537.16;4881811;29;19932;-82
2023/06/04 01:36:10;;;;;;;;;;;17.80;65.00;;;-151.14;100.00;62537.16;4881864;29;19934;-81
2023/06/04 01:38:40;;;;;;;;;;;17.80;64.90;;;187.61;100.00;62537.16;4912351;29;19930;-82
2023/06/04 01:41:08;;;;;;;;;;;17.70;64.60;;;-151.14;100.00;62537.16;4897154;29;19973;-81
2023/06/04 01:43:36;;;;;;;;;;;17.70;64.30;;;-151.14;100.00;62537.16;4897084;29;19924;-81
2023/06/04 01:46:04;;;;;;;;;;;17.70;64.40;;;18.08;100.00;62537.16;4882016;29;19923;-81
2023/06/04 01:48:33;;;;;;;;;;;17.70;64.50;;;187.61;100.00;62537.16;4880836;29;19932;-81
2023/06/04 01:51:01;;;;;;;;;;;17.70;64.30;;;-151.14;100.00;62537.16;4912913;29;19945;-81
2023/06/04 01:53:30;;;;;;;;;;;17.70;64.50;;;-151.14;100.00;62537.16;4897017;29;19923;-81
2023/06/04 01:55:59;;;;;;;;;;;17.70;64.60;;;-151.14;100.00;62537.16;4912783;29;19924;-81
2023/06/04 01:58:28;;;;;;;;;;;17.70;64.80;;;-151.14;100.00;62537.16;4912140;29;20210;-81
2023/06/04 02:00:59;;;;;;;;;;;17.70;64.60;;;-151.14;100.00;62537.16;4912646;29;19927;-81
2023/06/04 02:03:28;;;;;;;;;;;17.70;64.60;;;-151.14;100.00;62537.16;4912513;29;19946;-82
2023/06/04 02:05:56;;;;;;;;;;;17.70;64.50;;;-151.14;100.00;62537.16;4881345;29;20208;-81
2023/06/04 02:08:25;;;;;;;;;;;17.70;64.60;;;-151.14;100.00;62537.16;4896251;29;19923;-81
2023/06/04 02:10:52;;;;;;;;;;;17.70;64.70;;;;;;4881242;29;19930;-81
2023/06/04 02:13:22;;;;;;;;;;;17.70;64.70;;;-151.14;100.00;62537.16;4912506;29;20139;-81
2023/06/04 02:15:50;;;;;;;;;;;17.70;64.30;;;-151.14;100.00;62537.16;4881383;29;19923;-81
2023/06/04 02:18:20;;;;;;;;;;;17.70;63.80;;;16.87;100.00;62537.16;4896480;29;19930;-82
2023/06/04 02:20:49;;;;;;;;;;;17.70;63.40;;;-151.14;100.00;62537.16;4912247;29;19923;-81
2023/06/04 02:23:17;;;;;;;;;;;17.70;63.40;;;-151.14;100.00;62537.16;4912218;29;19929;-81
2023/06/04 02:25:45;;;;;;;;;;;17.70;63.80;;;-151.14;100.00;62537.16;4896616;29;19930;-81
2023/06/04 02:28:13;;;;;;;;;;;17.70;64.20;;;-151.14;100.00;62537.16;4896381;29;20127;-81
2023/06/04 02:30:43;;;;;;;;;;;17.70;64.40;;;-151.14;100.00;62537.16;4895765;29;19931;-81
2023/06/04 02:33:11;;;;;;;;;;;17.70;64.60;;;-151.14;100.00;62537.16;4895603;29;19929;-81
2023/06/04 02:35:39;;;;;;;;;;;17.70;64.40;;;-151.14;100.00;62537.16;4912023;29;19938;-81
2023/06/04 02:38:07;;;;;;;;;;;17.70;64.40;;;-151.14;100.00;62537.16;4880915;29;19923;-81
2023/06/04 02:40:35;;;;;;;;;;;17.70;64.80;;;-151.14;100.00;62537.16;4895909;29;20119;-82
2023/06/04 02:43:03;;;;;;;;;;;17.70;65.00;;;-151.14;100.00;62537.16;4896421;29;19932;-81
2023/06/04 02:45:31;;;;;;;;;;;17.70;64.80;;;-151.14;100.00;62537.16;4896347;29;19930;-81
2023/06/04 02:48:01;;;;;;;;;;;17.70;64.60;;;-151.14;100.00;62537.16;4880768;29;19923;-81
2023/06/04 02:50:29;;;;;;;;;;;17.70;64.50;;;-151.14;100.00;62537.16;4895756;29;20208;-81
2023/06/04 02:52:57;;;;;;;;;;;17.60;64.50;;;-151.14;100.00;62537.16;4896205;29;19929;-81
2023/06/04 02:55:25;;;;;;;;;;;17.70;64.70;;;-151.14;100.00;62537.16;4896072;29;19929;-81
2023/06/04 02:57:53;;;;;;;;;;;17.70;64.60;;;-151.14;100.00;62537.16;4897404;29;19924;-81
2023/06/04 03:00:21;;;;;;;;;;;17.70;64.10;;;-151.14;100.00;62537.16;4895327;29;19930;-81
2023/06/04 03:02:49;;;;;;;;;;;17.70;63.80;;;-151.14;100.00;62537.16;4896285;29;19923;-81
2023/06/04 03:05:19;;;;;;;;;;;17.70;64.00;;;-151.14;100.00;62537.16;4895883;29;19923;-81
2023/06/04 03:07:47;;;;;;;;;;;17.70;64.30;;;16.83;100.00;62537.16;4880487;29;19930;-81
2023/06/04 03:10:15;;;;;;;;;;;17.70;64.10;;;-151.14;100.00;62537.16;4896530;29;19924;-81
2023/06/04 03:12:43;;;;;;;;;;;17.70;64.20;;;-151.14;100.00;62537.16;4897126;29;19930;-81
2023/06/04 03:15:11;;;;;;;;;;;17.70;64.30;;;-151.14;100.00;62537.16;4896066;29;19924;-81
2023/06/04 03:17:39;;;;;;;;;;;17.70;64.10;;;-151.14;100.00;62537.16;4895987;29;19930;-81
2023/06/04 03:20:09;;;;;;;;;;;17.70;63.70;;;-151.14;100.00;62537.16;4879326;29;19923;-81
2023/06/04 03:22:38;;;;;;;;;;;17.60;63.50;;;18.08;100.00;62537.16;4911350;29;20274;-81
2023/06/04 03:25:07;;;;;;;;;;;17.60;63.80;;;-151.14;100.00;62537.16;4895725;29;19924;-81
2023/06/04 03:27:36;;;;;;;;;;;17.60;62.90;;;-151.14;100.00;62537.16;4895853;29;19924;-81
2023/06/04 03:30:07;;;;;;;;;;;17.60;63.00;;;-151.14;100.00;62537.16;4879751;29;19924;-81
2023/06/04 03:32:45;;;;;;;;;;;17.60;62.90;;;-151.14;100.00;62537.16;4895934;29;19923;-81
2023/06/04 03:35:13;;;;;;;;;;;17.60;62.20;;;-151.14;100.00;62537.16;4880081;29;19923;-81
2023/06/04 03:37:42;;;;;;;;;;;17.60;61.80;;;-151.14;100.00;62537.16;4911351;29;19923;-81
2023/06/04 03:40:11;;;;;;;;;;;17.60;60.40;;;-151.14;100.00;62537.16;4894864;29;19924;-81
2023/06/04 03:42:43;;;;;;;;;;;17.60;60.50;;;-151.14;100.00;62537.16;4895825;29;20139;-81
2023/06/04 03:45:11;;;;;;;;;;;17.50;59.50;;;-151.14;100.00;62537.16;4895416;29;19934;-81
2023/06/04 03:47:39;;;;;;;;;;;17.50;59.50;;;18.08;100.00;62537.16;4895700;29;19946;-81
2023/06/04 03:50:09;;;;;;;;;;;17.40;60.20;;;-151.14;100.00;62537.16;4879224;29;19923;-81
2023/06/04 03:52:38;;;;;;;;;;;17.40;60.90;;;-151.14;100.00;62537.16;4911264;29;20207;-81
2023/06/04 03:55:10;;;;;;;;;;;17.40;60.90;;;-151.14;100.00;62537.16;4911040;29;19923;-81
2023/06/04 03:57:40;;;;;;;;;;;17.40;61.00;;;16.61;100.00;83403.22;4911357;29;19945;-81
2023/06/04 04:00:12;;;;;;;;;;;17.40;61.10;;;-151.14;100.00;62537.16;4894604;29;19923;-81
2023/06/04 04:02:46;;;;;;;;;;;17.40;60.80;;;16.75;100.00;62537.16;4895626;29;19923;-80
2023/06/04 04:05:22;;;;;;;;;;;17.40;61.20;;;-151.14;100.00;62537.16;4879660;29;19923;-81
2023/06/04 04:07:51;;;;;;;;;;;17.40;61.40;;;187.61;100.00;62537.16;4895452;29;19924;-81
2023/06/04 04:10:24;;;;;;;;;;;17.40;60.90;;;-151.14;100.00;62537.16;4894471;29;19924;-81
2023/06/04 04:12:54;;;;;;;;;;;17.40;60.20;;;-151.14;100.00;62537.16;4895337;29;19923;-81
2023/06/04 04:15:23;;;;;;;;;;;17.40;60.00;;;-151.14;100.00;62537.16;4910798;29;19923;-81
2023/06/04 04:17:52;;;;;;;;;;;17.40;59.60;;;187.61;100.00;62537.16;4895348;29;19924;-81
2023/06/04 04:20:20;;;;;;;;;;;17.40;58.70;;;16.75;100.00;83423.47;4894443;29;19930;-81
2023/06/04 04:22:54;;;;;;;;;;;17.50;59.00;;;-151.14;100.00;62537.16;4879737;29;19924;-81
2023/06/04 04:25:24;;;;;;;;;;;17.50;58.60;;;16.75;100.00;62537.16;4895115;29;19924;-81
2023/06/04 04:27:56;;;;;;;;;;;17.50;57.60;;;16.80;100.00;62537.16;4895207;29;19927;-81
2023/06/04 04:30:25;;;;;;;;;;;17.50;58.00;;;-151.14;100.00;62537.16;4875783;29;19930;-81
2023/06/04 04:32:55;;;;;;;;;;;17.50;57.40;;;-151.14;100.00;62537.16;4893876;29;20234;-81
2023/06/04 04:35:32;;;;;;;;;;;17.50;57.00;;;-151.14;100.00;62537.16;4898287;29;19923;-81
2023/06/04 04:38:03;;;;;;;;;;;17.50;57.10;;;-151.14;100.00;62537.16;4882790;29;19923;-80
2023/06/04 04:40:33;;;;;;;;;;;17.50;56.90;;;-151.14;100.00;62537.16;4897547;29;19923;-81
2023/06/04 04:43:04;;;;;;;;;;;17.60;56.30;;;-151.14;100.00;62537.16;4898224;29;20565;-80
2023/06/04 04:45:32;;;;;;;;;;;17.60;56.00;;;-151.14;100.00;62537.16;4897942;29;20215;-81
2023/06/04 04:48:02;;;;;;;;;;;17.60;55.40;;;16.90;100.00;62537.16;4898076;29;20011;-81
2023/06/04 04:50:31;;;;;;;;;;;17.60;55.50;;;-151.14;100.00;62537.16;4913083;29;20122;-81
2023/06/04 04:53:00;;;;;;;;;;;17.60;55.30;;;-151.14;100.00;62537.16;4898115;29;19942;-81
2023/06/04 04:55:28;;;;;;;;;;;17.60;55.90;;;-151.14;100.00;62537.16;4882402;29;19930;-81
2023/06/04 04:57:58;;;;;;;;;;;17.60;55.40;;;-151.14;100.00;62537.16;4882353;29;19923;-81
2023/06/04 05:00:27;;;;;;;;;;;17.50;55.40;;;-151.14;100.00;62537.16;4881561;29;19930;-81
2023/06/04 05:02:57;;;;;;;;;;;17.50;56.10;;;-151.14;100.00;62537.16;4898012;29;19923;-81
2023/06/04 05:05:25;;;;;;;;;;;17.50;56.70;;;16.72;nan;96646.38;4897797;29;19923;-81
2023/06/04 05:07:54;;;;;;;;;;;17.40;56.40;;;16.68;nan;96645.34;4897782;29;19924;-81
2023/06/04 05:10:27;;;;;;;;;;;17.40;56.20;;;16.64;nan;96642.38;4897491;29;19929;-81
2023/06/04 05:12:56;;;;;;;;;;;17.40;56.40;;;16.62;nan;96635.47;4882019;29;19942;-80
2023/06/04 05:15:29;;;;;;;;;;;17.30;56.70;;;16.61;nan;96639.34;4882257;29;19924;-81
2023/06/04 05:18:00;;;;;;;;;;;17.30;57.80;;;16.60;nan;96648.78;4913466;29;19930;-81
2023/06/04 05:20:31;;;;;;;;;;;17.30;57.90;;;16.58;nan;96654.63;4896924;29;19930;-81
2023/06/04 05:23:00;;;;;;;;;;;17.30;58.50;;;16.59;nan;96652.69;4882109;29;19930;-81
2023/06/04 05:25:28;;;;;;;;;;;17.30;57.90;;;16.59;nan;96649.91;4898720;29;20215;-81
2023/06/04 05:27:57;;;;;;;;;;;17.30;57.90;;;16.58;nan;96657.38;4897605;29;19923;-81
2023/06/04 05:30:25;;;;;;;;;;;17.30;58.70;;;16.59;nan;96658.22;4896869;29;19923;-81
2023/06/04 05:32:55;;;;;;;;;;;17.30;59.10;;;16.60;nan;96657.06;4882031;29;20340;-81
2023/06/04 05:35:27;;;;;;;;;;;17.30;58.40;;;16.59;nan;96653.50;4897452;29;19924;-80
2023/06/04 05:37:55;;;;;;;;;;;17.30;58.10;;;16.59;nan;96664.56;4897547;29;20215;-80
2023/06/04 05:40:27;;;;;;;;;;;17.30;57.90;;;16.60;nan;96659.81;4881075;29;19924;-80
2023/06/04 05:42:55;;;;;;;;;;;17.30;58.30;;;16.60;nan;96660.66;4897418;29;19924;-80
2023/06/04 05:45:23;;;;;;;;;;;17.30;58.50;;;16.61;nan;96673.38;4897120;29;19924;-81
2023/06/04 05:47:56;;;;;;;;;;;17.30;58.90;;;16.61;nan;96670.59;4881925;29;19938;-81
2023/06/04 05:50:26;;;;;;;;;;;17.30;59.00;;;16.63;nan;96665.59;4896746;29;20114;-81
2023/06/04 05:52:54;;;;;;;;;;;17.40;59.50;;;16.66;nan;96673.28;4898657;29;19923;-81
2023/06/04 05:55:24;;;;;;;;;;;17.40;58.80;;;16.66;nan;96669.72;4897550;29;19924;-81
2023/06/04 05:57:53;;;;;;;;;;;17.40;58.20;;;16.68;nan;96676.56;4881829;29;19924;-81
2023/06/04 06:00:21;;;;;;;;;;;17.40;57.90;;;16.70;nan;96679.06;4893603;29;20029;-81
2023/06/04 06:02:52;;;;;;;;;;;17.40;59.10;;;16.71;nan;96686.22;4894196;29;19924;-81
2023/06/04 06:05:34;;;;;;;;;;;17.40;57.60;;;16.72;nan;96685.09;4894163;29;20120;-80
2023/06/04 06:08:03;;;;;;;;;;;17.40;56.90;;;16.72;nan;96682.31;4878883;29;19923;-81
2023/06/04 06:10:31;;;;;;;;;;;17.40;57.70;;;16.74;nan;96682.03;4877967;29;19930;-81
2023/06/04 06:13:00;;;;;;;;;;;17.40;58.00;;;16.74;nan;96677.31;4893782;29;19923;-81
2023/06/04 06:15:29;;;;;;;;;;;17.50;58.70;;;16.77;nan;96685.03;4878505;29;19924;-81
2023/06/04 06:17:58;;;;;;;;;;;17.50;56.90;;;16.78;nan;96683.91;4878585;29;19924;-81
2023/06/04 06:20:26;;;;;;;;;;;17.50;57.20;;;16.79;nan;96679.19;4877803;29;19924;-81
2023/06/04 06:22:55;;;;;;;;;;;17.50;57.80;;;16.81;nan;96688.00;4862733;29;19931;-81
2023/06/04 06:25:25;;;;;;;;;;;17.50;57.50;;;16.82;nan;96684.97;4878455;29;19924;-81
2023/06/04 06:28:02;;;;;;;;;;;17.50;57.70;;;16.83;nan;96677.47;4893762;29;19923;-81
2023/06/04 06:30:30;;;;;;;;;;;17.50;57.40;;;16.84;nan;96688.25;4862004;29;19924;-81
2023/06/04 06:33:00;;;;;;;;;;;17.50;55.90;;;16.83;nan;96683.84;4862555;29;20241;-81
2023/06/04 06:35:28;;;;;;;;;;;17.50;55.80;;;16.84;nan;96688.25;4878143;29;19924;-81
2023/06/04 06:37:57;;;;;;;;;;;17.50;56.20;;;16.85;nan;96686.28;4878201;29;19926;-82
2023/06/04 06:40:30;;;;;;;;;;;17.60;56.90;;;16.87;nan;96686.81;4861806;29;20210;-81
2023/06/04 06:42:58;;;;;;;;;;;17.60;57.10;;;16.87;nan;96687.63;4879188;29;19930;-81
2023/06/04 06:45:26;;;;;;;;;;;17.60;56.60;;;16.90;nan;96686.22;4877958;29;19930;-81
2023/06/04 06:47:54;;;;;;;;;;;17.60;56.70;;;16.91;nan;96689.81;4877742;29;19924;-81
2023/06/04 06:50:22;;;;;;;;;;;17.60;55.80;;;16.92;nan;96688.69;4877190;29;19924;-81
2023/06/04 06:52:50;;;;;;;;;;;17.60;56.00;;;16.93;nan;96687.56;4877900;29;19923;-81
2023/06/04 06:55:20;;;;;;;;;;;17.60;56.80;;;16.94;nan;96687.28;4877231;29;19930;-81
2023/06/04 06:57:48;;;;;;;;;;;17.70;56.30;;;16.95;nan;96686.16;4913725;29;19923;-81
2023/06/04 07:00:17;;;;;;;;;;;17.70;55.80;;;16.96;nan;96685.03;4880318;29;20100;-81
2023/06/04 07:02:45;;;;;;;;;;;17.70;55.60;;;16.96;nan;96685.03;4896185;29;19923;-81
2023/06/04 07:05:14;;;;;;;;;;;17.70;55.70;;;16.97;nan;96689.47;4897870;29;19939;-81
2023/06/04 07:07:43;;;;;;;;;;;17.70;55.80;;;16.98;nan;96690.25;4896187;29;19924;-81
2023/06/04 07:10:11;;;;;;;;;;;17.70;55.60;;;16.99;nan;96684.44;4895705;29;19945;-81
2023/06/04 07:12:40;;;;;;;;;;;17.70;56.80;;;17.01;nan;96682.22;4896188;29;19929;-81
2023/06/04 07:15:09;;;;;;;;;;;17.70;56.30;;;17.04;nan;96683.53;4912092;29;19923;-81
2023/06/04 07:17:37;;;;;;;;;;;17.80;56.70;;;17.04;nan;96680.78;4896129;29;19924;-82
2023/06/04 07:20:08;;;;;;;;;;;17.80;56.20;;;17.08;nan;96686.53;4895669;29;20215;-81
2023/06/04 07:22:36;;;;;;;;;;;17.80;56.40;;;17.11;nan;96685.94;4897193;29;19970;-82
2023/06/04 07:25:05;;;;;;;;;;;17.80;57.20;;;17.15;nan;96682.25;4895954;29;19924;-81
2023/06/04 07:27:34;;;;;;;;;;;17.90;57.30;;;17.22;nan;96686.59;4897103;29;20285;-81
2023/06/04 07:30:04;;;;;;;;;;;17.90;57.60;;;17.29;nan;96687.03;4895417;29;19930;-81
2023/06/04 07:32:32;;;;;;;;;;;18.00;57.70;;;17.36;nan;96689.41;4897068;29;19931;-81
2023/06/04 07:35:00;;;;;;;;;;;18.10;57.40;;;17.43;nan;96692.59;4896011;29;20097;-82
2023/06/04 07:37:28;;;;;;;;;;;18.10;57.70;;;17.48;nan;96684.22;4895849;29;19930;-82
2023/06/04 07:39:56;;;;;;;;;;;18.20;56.90;;;17.54;nan;96698.78;4895211;29;19930;-82
2023/06/04 07:42:24;;;;;;;;;;;18.20;57.10;;;-151.14;100.00;62537.16;4880164;29;19923;-82
2023/06/04 07:44:52;;;;;;;;;;;18.30;56.90;;;17.61;100.00;62537.16;4880322;29;19997;-82
2023/06/04 07:47:21;;;;;;;;;;;18.30;57.10;;;-151.14;100.00;62537.16;4880006;29;19923;-82
2023/06/04 07:49:49;;;;;;;;;;;18.40;56.80;;;-151.14;100.00;62537.16;4879638;29;19927;-82
2023/06/04 07:52:17;;;;;;;;;;;18.40;57.10;;;-151.14;100.00;62537.16;4896766;29;19924;-82
2023/06/04 07:54:45;;;;;;;;;;;18.40;57.10;;;-151.14;100.00;62537.16;4880010;29;19924;-82
2023/06/04 07:57:13;;;;;;;;;;;18.50;57.50;;;-151.14;100.00;62537.16;4895582;29;19930;-82
2023/06/04 07:59:41;;;;;;;;;;;18.50;57.60;;;-151.14;100.00;62537.16;4894993;29;19923;-82
2023/06/04 08:02:09;;;;;;;;;;;18.60;57.80;;;18.08;100.00;62537.16;4896814;29;19930;-82
2023/06/04 08:04:39;;;;;;;;;;;18.60;57.80;;;-151.14;100.00;62537.16;4895537;29;19930;-82
2023/06/04 08:07:07;;;;;;;;;;;18.60;58.00;;;17.92;100.00;62537.16;4897698;29;19946;-82
2023/06/04 08:09:35;;;;;;;;;;;18.60;58.20;;;-151.14;100.00;62537.16;4898251;29;19930;-82
2023/06/04 08:12:04;;;;;;;;;;;18.70;58.10;;;-151.14;100.00;62537.16;4880054;29;19930;-83
2023/06/04 08:14:32;;;;;;;;;;;18.70;58.20;;;-151.14;100.00;62537.16;4895584;29;20272;-82
2023/06/04 08:17:00;;;;;;;;;;;18.70;58.30;;;-151.14;100.00;62537.16;4879947;29;19930;-83
2023/06/04 08:19:38;;;;;;;;;;;18.70;57.90;;;-151.14;100.00;62537.16;4880377;29;19931;-82
2023/06/04 08:22:11;;;;;;;;;;;18.70;58.00;;;18.08;100.00;62537.16;4894952;29;19927;-82
2023/06/04 08:24:51;;;;;;;;;;;18.70;57.30;;;-151.14;100.00;62537.16;4879442;29;19946;-82
2023/06/04 08:27:39;;;;;;;;;;;18.70;57.90;;;-151.14;100.00;62537.16;4879907;29;20234;-82
2023/06/04 08:30:17;;;;;;;;;;;18.70;58.00;;;60.43;100.00;62537.16;4879321;29;20104;-82
2023/06/04 08:33:05;;;;;;;;;;;18.70;58.20;;;-151.14;100.00;62537.16;4879634;29;19924;-82
2023/06/04 08:35:40;;;;;;;;;;;18.70;58.30;;;-151.14;100.00;62537.16;4864997;29;19939;-82
2023/06/04 08:38:08;;;;;;;;;;;18.70;58.70;;;-151.14;100.00;62537.16;4879654;29;19946;-82
2023/06/04 08:40:36;;;;;;;;;;;18.80;58.90;;;18.01;100.00;62537.16;4878960;29;19946;-82
2023/06/04 08:43:04;;;;;;;;;;;18.80;58.90;;;-151.14;100.00;62537.16;4895236;29;19923;-83
2023/06/04 08:45:33;;;;;;;;;;;18.80;59.00;;;18.02;100.00;106994.31;4864335;29;19924;-82
2023/06/04 08:48:01;;;;;;;;;;;18.80;59.10;;;18.16;100.00;62537.16;4880069;29;20238;-82
2023/06/04 08:50:31;;;;;;;;;;;18.80;59.30;;;18.08;100.00;62537.16;4879904;29;20104;-83
2023/06/04 08:53:01;;;;;;;;;;;18.80;58.40;;;-151.14;100.00;62537.16;4881995;29;19923;-82
2023/06/04 08:55:29;;;;;;;;;;;18.80;59.30;;;18.02;100.00;62537.16;4864392;29;20115;-82
2023/06/04 08:57:57;;;;;;;;;;;18.80;59.40;;;-151.14;100.00;62537.16;4880173;29;19923;-82
2023/06/04 09:00:25;;;;;;;;;;;18.80;59.40;;;18.08;100.00;62537.16;4879046;29;20119;-83
2023/06/04 09:02:53;;;;;;;;;;;18.80;59.50;;;18.08;100.00;62537.16;4895276;29;20211;-83
2023/06/04 09:05:22;;;;;;;;;;;18.80;59.50;;;-151.14;100.00;62537.16;4879785;29;19923;-83
2023/06/04 09:07:53;;;;;;;;;;;18.80;59.60;;;-151.14;100.00;62537.16;4895483;29;19930;-83
2023/06/04 09:10:23;;;;;;;;;;;18.80;59.70;;;-151.14;100.00;62537.16;4894453;29;19924;-83
2023/06/04 09:12:52;;;;;;;;;;;18.80;59.90;;;-151.14;100.00;62537.16;4895229;29;19924;-83
2023/06/04 09:15:19;;;;;;;;;;;18.80;59.90;;;;;;4879863;29;19930;-83
2023/06/04 09:17:58;;;;;;;;;;;18.80;60.00;;;18.08;100.00;62537.16;4897184;29;19924;-83
2023/06/04 09:20:26;;;;;;;;;;;18.80;60.00;;;18.08;100.00;62537.16;4879654;29;19924;-83
2023/06/04 09:22:54;;;;;;;;;;;18.80;60.20;;;18.08;100.00;62537.16;4879070;29;19924;-83
2023/06/04 09:25:25;;;;;;;;;;;18.80;60.20;;;-151.14;100.00;62537.16;4894544;29;19930;-83
2023/06/04 09:27:53;;;;;;;;;;;18.80;60.30;;;18.04;100.00;62537.16;4878896;29;19924;-83
2023/06/04 09:30:21;;;;;;;;;;;18.80;60.50;;;18.08;100.00;62537.16;4878374;29;19924;-83
2023/06/04 09:32:49;;;;;;;;;;;18.80;60.50;;;-151.14;100.00;62537.16;4863397;29;19923;-83
2023/06/04 09:35:17;;;;;;;;;;;18.80;60.70;;;-151.14;100.00;62537.16;4878903;29;20216;-82
2023/06/04 09:37:53;;;;;;;;;;;18.80;60.80;;;18.08;100.00;62537.16;4878818;29;19924;-82
2023/06/04 09:40:22;;;;;;;;;;;18.80;60.80;;;-151.14;100.00;62537.16;4877951;29;19924;-83
2023/06/04 09:42:54;;;;;;;;;;;18.80;60.90;;;17.99;100.00;106994.31;4878718;29;19935;-83
2023/06/04 09:45:29;;;;;;;;;;;18.80;61.10;;;-151.14;100.00;62537.16;4878749;29;19930;-83
2023/06/04 09:47:57;;;;;;;;;;;18.70;61.20;;;18.08;100.00;62537.16;4878684;29;19924;-83
2023/06/04 09:50:28;;;;;;;;;;;18.70;61.30;;;18.08;100.00;62537.16;4893622;29;19924;-83
2023/06/04 09:52:56;;;;;;;;;;;18.70;61.30;;;-151.14;100.00;62537.16;4894290;29;19925;-83
2023/06/04 09:55:26;;;;;;;;;;;18.70;61.40;;;-151.14;100.00;62537.16;4910523;29;19930;-83
2023/06/04 09:57:54;;;;;;;;;;;18.80;61.50;;;-151.14;100.00;62537.16;4897278;29;19929;-83
2023/06/04 10:00:23;;;;;;;;;;;18.70;61.50;;;;;;4880726;29;19988;-83
2023/06/04 10:02:54;;;;;;;;;;;18.80;61.70;;;18.03;100.00;62537.16;4897197;29;19927;-83
2023/06/04 10:05:22;;;;;;;;;;;18.80;61.70;;;-151.14;100.00;62537.16;4912852;29;19930;-83
2023/06/04 10:07:51;;;;;;;;;;;18.80;61.80;;;18.04;100.00;62537.16;4898477;29;19923;-83
2023/06/04 10:10:24;;;;;;;;;;;18.80;61.80;;;-151.14;100.00;62537.16;4896440;29;20219;-83
2023/06/04 10:12:56;;;;;;;;;;;18.80;62.00;;;-151.14;100.00;62537.16;4896975;29;19929;-83
2023/06/04 10:15:24;;;;;;;;;;;18.80;61.90;;;-151.14;100.00;62537.16;4896926;29;19924;-83
2023/06/04 10:17:52;;;;;;;;;;;18.80;61.90;;;-151.14;100.00;62537.16;4898055;29;19924;-83
2023/06/04 10:20:20;;;;;;;;;;;18.80;62.10;;;18.08;100.00;62537.16;4896089;29;19930;-83
2023/06/04 10:22:48;;;;;;;;;;;18.80;62.00;;;-151.14;100.00;62537.16;4881329;29;19945;-83
2023/06/04 10:25:17;;;;;;;;;;;18.80;62.00;;;-151.14;100.00;62537.16;4912450;29;19923;-83
2023/06/04 10:27:44;;;;;;;;;;;18.80;62.10;;;-151.14;100.00;62537.16;4896774;29;19924;-83
2023/06/04 10:30:14;;;;;;;;;;;18.80;62.30;;;-151.14;100.00;62537.16;4895825;29;19924;-83
2023/06/04 10:32:42;;;;;;;;;;;18.80;62.30;;;39.25;100.00;62537.16;4896623;29;19923;-83
2023/06/04 10:35:11;;;;;;;;;;;18.80;62.40;;;-151.14;100.00;62537.16;4880948;29;19932;-83
2023/06/04 10:37:39;;;;;;;;;;;18.80;62.40;;;-151.14;100.00;62537.16;4896702;29;19924;-83
2023/06/04 10:40:08;;;;;;;;;;;18.80;62.40;;;18.08;100.00;62537.16;4880131;29;19930;-83
2023/06/04 10:42:41;;;;;;;;;;;18.90;62.60;;;-151.14;100.00;62537.16;4896587;29;19930;-83
2023/06/04 10:45:10;;;;;;;;;;;18.90;62.50;;;-151.14;100.00;62537.16;4896489;29;19924;-83
2023/06/04 10:47:40;;;;;;;;;;;18.90;62.60;;;18.13;100.00;62537.16;4881061;29;19923;-83
2023/06/04 10:50:09;;;;;;;;;;;18.90;62.50;;;-151.14;100.00;62537.16;4897204;29;19925;-83
2023/06/04 10:52:38;;;;;;;;;;;18.90;62.50;;;-151.14;100.00;62537.16;4915026;29;19930;-83
2023/06/04 10:55:07;;;;;;;;;;;18.90;62.60;;;-151.14;100.00;62537.16;4900869;29;19929;-83
2023/06/04 10:57:35;;;;;;;;;;;18.80;62.60;;;-151.14;100.00;62537.16;4902053;29;19930;-83
2023/06/04 11:00:06;;;;;;;;;;;18.90;62.80;;;-151.14;100.00;62537.16;4901775;29;19929;-83
2023/06/04 11:02:34;;;;;;;;;;;18.80;62.80;;;-151.14;100.00;62537.16;4902791;29;19923;-83
2023/06/04 11:05:05;;;;;;;;;;;18.80;62.90;;;-151.14;100.00;62537.16;4915882;29;19923;-83
2023/06/04 11:07:44;;;;;;;;;;;18.80;63.00;;;-151.14;100.00;62537.16;4903157;29;19923;-83
2023/06/04 11:10:13;;;;;;;;;;;18.80;63.00;;;18.08;100.00;62537.16;4903035;29;19923;-83
2023/06/04 11:12:44;;;;;;;;;;;18.80;63.10;;;-151.14;100.00;62537.16;4900302;29;19933;-83
2023/06/04 11:15:12;;;;;;;;;;;18.80;63.20;;;-151.14;100.00;62537.16;4900368;29;19930;-83
2023/06/04 11:17:51;;;;;;;;;;;18.80;63.40;;;18.08;100.00;62537.16;4884112;29;19924;-83